Time;durP1;ratioP1;P1;durP2;ratioP2;P2;SDS_P1;SDS_P2;PMS_P1;PMS_P2;Temp;Humidity;BMP_temperature;BMP_pressure;BME280_temperature;BME280_humidity;BME280_pressure;Samples;Min_cycle;Max_cycle;Signal;HPM_P1;HPM_P2
2022/11/05 00:10:36;;;;;;;2.72;0.98;;;;;;;;;;4987682;28;19922;-67
2022/11/05 00:18:34;;;;;;;2.65;0.80;;;;;;;;;;4979534;28;20046;-68
2022/11/05 00:21:00;;;;;;;1.98;0.80;;;;;;;;;;4984393;28;20050;-68
2022/11/05 00:26:11;;;;;;;;;;;;;;;;;;4986363;28;20058;-66
2022/11/05 00:28:39;;;;;;;2.63;0.70;;;;;;;;;;4987276;28;19922;-67
2022/11/05 00:31:11;;;;;;;1.55;0.65;;;;;;;;;;5019144;28;20276;-66
2022/11/05 00:33:39;;;;;;;1.83;0.80;;;;;;;;;;5027767;28;20061;-65
2022/11/05 00:36:06;;;;;;;2.03;0.68;;;;;;;;;;5026629;28;20258;-67
2022/11/05 00:38:33;;;;;;;2.22;0.70;;;;;;;;;;5031157;28;20049;-68
2022/11/05 00:41:00;;;;;;;3.97;0.80;;;;;;;;;;5030187;28;20207;-67
2022/11/05 00:46:10;;;;;;;1.58;0.75;;;;;;;;;;5020138;28;20056;-66
2022/11/05 00:51:21;;;;;;;2.35;0.60;;;;;;;;;;5032259;28;20137;-66
2022/11/05 00:53:47;;;;;;;5.38;1.13;;;;;;;;;;5020369;28;20688;-68
2022/11/05 00:56:13;;;;;;;1.40;0.70;;;;;;;;;;5038815;28;20045;-67
2022/11/05 00:58:39;;;;;;;1.38;0.57;;;;;;;;;;5029077;28;20037;-65
2022/11/05 01:01:05;;;;;;;1.75;0.70;;;;;;;;;;5027947;28;20376;-65
2022/11/05 01:03:34;;;;;;;2.95;0.50;;;;;;;;;;5035247;28;20041;-69
2022/11/05 01:06:05;;;;;;;4.32;0.60;;;;;;;;;;5024032;28;20511;-65
2022/11/05 01:08:31;;;;;;;2.42;0.70;;;;;;;;;;5027901;28;20045;-67
2022/11/05 01:10:58;;;;;;;2.03;0.60;;;;;;;;;;5034907;28;20057;-66
2022/11/05 01:13:27;;;;;;;1.27;0.65;;;;;;;;;;5028990;28;20057;-66
2022/11/05 01:15:54;;;;;;;1.80;0.70;;;;;;;;;;5021210;28;20047;-66
2022/11/05 01:18:21;;;;;;;3.53;0.80;;;;;;;;;;5021204;28;20045;-67
2022/11/05 01:20:47;;;;;;;1.55;0.50;;;;;;;;;;5027493;28;20046;-65
2022/11/05 01:23:14;;;;;;;2.55;1.00;;;;;;;;;;5025418;28;20450;-68
2022/11/05 01:25:41;;;;;;;1.92;0.70;;;;;;;;;;5019109;28;20058;-66
2022/11/05 01:28:08;;;;;;;1.58;0.60;;;;;;;;;;5022094;28;20277;-65
2022/11/05 01:30:35;;;;;;;1.13;0.63;;;;;;;;;;5037654;28;20493;-65
2022/11/05 01:33:02;;;;;;;2.83;0.50;;;;;;;;;;5025901;28;20053;-67
2022/11/05 01:35:28;;;;;;;3.75;0.70;;;;;;;;;;5027540;28;20137;-64
2022/11/05 01:37:54;;;;;;;1.02;0.55;;;;;;;;;;5028777;28;20479;-69
2022/11/05 01:40:23;;;;;;;1.67;0.60;;;;;;;;;;5028561;28;20041;-71
2022/11/05 01:42:49;;;;;;;4.00;1.05;;;;;;;;;;5030774;28;20054;-64
2022/11/05 01:45:16;;;;;;;3.13;0.70;;;;;;;;;;5022959;28;20107;-64
2022/11/05 01:47:56;;;;;;;2.85;0.80;;;;;;;;;;5025503;28;20099;-65
2022/11/05 01:50:30;;;;;;;2.72;0.90;;;;;;;;;;5031389;28;20541;-65
2022/11/05 01:53:02;;;;;;;1.70;0.50;;;;;;;;;;5028882;28;20045;-65
2022/11/05 01:55:32;;;;;;;2.33;0.70;;;;;;;;;;5028222;28;20488;-65
2022/11/05 01:58:01;;;;;;;1.70;0.60;;;;;;;;;;5021958;28;20103;-65
2022/11/05 02:00:27;;;;;;;1.33;0.63;;;;;;;;;;5025833;28;20046;-65
2022/11/05 02:02:53;;;;;;;2.47;0.60;;;;;;;;;;5025818;28;20061;-67
2022/11/05 02:05:19;;;;;;;1.65;0.60;;;;;;;;;;5030190;28;20045;-67
2022/11/05 02:07:46;;;;;;;3.63;0.77;;;;;;;;;;5026847;28;20053;-66
2022/11/05 02:10:16;;;;;;;1.58;0.63;;;;;;;;;;5027346;28;20044;-70
2022/11/05 02:12:46;;;;;;;6.00;0.75;;;;;;;;;;5029516;28;20057;-65
2022/11/05 02:15:20;;;;;;;2.10;0.68;;;;;;;;;;5024375;28;20049;-65
2022/11/05 02:18:05;;;;;;;4.63;0.90;;;;;;;;;;5024713;28;20599;-65
2022/11/05 02:20:34;;;;;;;;;;;;;;;;;;5026006;28;20073;-66
2022/11/05 02:23:18;;;;;;;2.13;0.63;;;;;;;;;;5030935;28;19932;-65
2022/11/05 02:26:25;;;;;;;1.93;0.80;;;;;;;;;;5016365;28;20090;-64
2022/11/05 02:29:43;;;;;;;1.98;0.80;;;;;;;;;;5026377;28;20577;-67
2022/11/05 02:32:24;;;;;;;1.92;0.60;;;;;;;;;;5011444;28;20037;-67
2022/11/05 02:35:05;;;;;;;2.00;0.70;;;;;;;;;;5024868;28;20069;-67
2022/11/05 02:37:34;;;;;;;2.00;0.80;;;;;;;;;;5023430;28;20046;-65
2022/11/05 02:40:12;;;;;;;1.30;0.80;;;;;;;;;;5017822;28;20053;-64
2022/11/05 02:43:05;;;;;;;5.45;0.98;;;;;;;;;;5021506;28;20037;-66
2022/11/05 02:45:41;;;;;;;6.97;0.90;;;;;;;;;;5020968;28;20411;-65
2022/11/05 02:48:22;;;;;;;2.47;0.60;;;;;;;;;;5024368;28;20510;-67
2022/11/05 02:50:58;;;;;;;4.78;1.00;;;;;;;;;;5023790;28;20113;-67
2022/11/05 02:53:47;;;;;;;1.42;0.80;;;;;;;;;;5020977;28;20042;-66
2022/11/05 02:56:21;;;;;;;0.93;0.55;;;;;;;;;;5016223;28;20095;-65
2022/11/05 02:58:47;;;;;;;;;;;;;;;;;;5021149;28;20115;-66
2022/11/05 03:01:13;;;;;;;2.78;0.93;;;;;;;;;;5021709;28;20383;-64
2022/11/05 03:03:48;;;;;;;1.83;0.73;;;;;;;;;;5016909;28;20045;-65
2022/11/05 03:06:45;;;;;;;1.33;0.57;;;;;;;;;;5024344;28;20100;-63
2022/11/05 03:09:19;;;;;;;2.97;0.80;;;;;;;;;;5027341;28;20115;-64
2022/11/05 03:12:23;;;;;;;3.00;0.95;;;;;;;;;;5022621;28;20053;-64
2022/11/05 03:14:51;;;;;;;1.27;0.70;;;;;;;;;;5018802;28;20128;-66
2022/11/05 03:17:30;;;;;;;3.72;0.70;;;;;;;;;;5023158;28;20057;-65
2022/11/05 03:20:14;;;;;;;1.05;0.65;;;;;;;;;;5029846;28;20043;-65
2022/11/05 03:22:46;;;;;;;3.13;0.75;;;;;;;;;;5022787;28;20403;-70
2022/11/05 03:25:16;;;;;;;2.47;0.77;;;;;;;;;;5022335;28;20049;-65
2022/11/05 03:27:46;;;;;;;1.23;0.60;;;;;;;;;;5019604;28;20079;-66
2022/11/05 03:30:14;;;;;;;1.55;0.70;;;;;;;;;;5018682;28;20491;-67
2022/11/05 03:32:46;;;;;;;2.33;0.90;;;;;;;;;;5018917;28;20559;-65
2022/11/05 03:35:35;;;;;;;2.10;0.70;;;;;;;;;;5025150;28;20115;-65
2022/11/05 03:38:06;;;;;;;2.22;0.70;;;;;;;;;;5025973;28;20049;-65
2022/11/05 03:40:35;;;;;;;2.17;0.50;;;;;;;;;;5027693;28;20072;-64
2022/11/05 03:43:06;;;;;;;2.45;0.77;;;;;;;;;;5017972;28;20053;-65
2022/11/05 03:45:43;;;;;;;3.38;0.65;;;;;;;;;;5024689;28;20431;-63
2022/11/05 03:48:11;;;;;;;27.70;0.95;;;;;;;;;;5031021;28;20107;-64
2022/11/05 03:50:54;;;;;;;3.33;0.85;;;;;;;;;;5030536;28;20063;-66
2022/11/05 03:53:26;;;;;;;2.80;1.33;;;;;;;;;;5032962;28;20046;-66
2022/11/05 03:56:03;;;;;;;2.83;1.00;;;;;;;;;;5031112;28;20037;-65
2022/11/05 03:58:30;;;;;;;1.52;0.80;;;;;;;;;;5025092;28;20057;-67
2022/11/05 04:00:59;;;;;;;1.55;0.80;;;;;;;;;;5023962;28;20041;-67
2022/11/05 04:03:26;;;;;;;2.47;0.70;;;;;;;;;;5029602;28;20037;-65
2022/11/05 04:14:08;;;;;;;2.17;0.70;;;;;;;;;;5029100;28;20068;-63
2022/11/05 04:24:07;;;;;;;2.97;0.60;;;;;;;;;;5031921;28;20416;-65
2022/11/05 04:24:48;;;;;;;2.08;0.73;;;;;;;;;;5027119;28;20419;-65
2022/11/05 04:27:14;;;;;;;2.45;0.82;;;;;;;;;;5033235;28;20052;-64
2022/11/05 04:32:24;;;;;;;1.98;0.82;;;;;;;;;;5028470;28;20076;-65
2022/11/05 04:34:50;;;;;;;3.55;0.80;;;;;;;;;;5027041;28;20052;-64
2022/11/05 04:37:16;;;;;;;1.58;0.60;;;;;;;;;;5025225;28;20053;-64
2022/11/05 04:39:42;;;;;;;2.10;0.68;;;;;;;;;;5022640;28;20050;-66
2022/11/05 04:42:08;;;;;;;2.95;0.50;;;;;;;;;;5025025;28;20514;-66
2022/11/05 04:44:34;;;;;;;1.33;0.60;;;;;;;;;;5022420;28;20049;-66
2022/11/05 04:47:00;;;;;;;1.67;0.50;;;;;;;;;;5022862;28;20427;-65
2022/11/05 04:49:26;;;;;;;1.60;0.70;;;;;;;;;;5028574;28;20048;-69
2022/11/05 04:51:51;;;;;;;1.17;0.60;;;;;;;;;;5028164;28;20395;-64
2022/11/05 04:54:17;;;;;;;1.00;0.68;;;;;;;;;;5028062;28;20140;-68
2022/11/05 04:56:43;;;;;;;1.85;0.68;;;;;;;;;;5030583;28;20116;-64
2022/11/05 04:59:09;;;;;;;3.85;0.90;;;;;;;;;;5030358;28;20150;-68
2022/11/05 05:01:35;;;;;;;1.80;0.70;;;;;;;;;;5025730;28;20045;-65
2022/11/05 05:04:01;;;;;;;2.97;0.75;;;;;;;;;;5032817;28;20065;-66
2022/11/05 05:06:27;;;;;;;4.72;0.80;;;;;;;;;;5031217;28;20085;-65
2022/11/05 05:08:53;;;;;;;4.40;0.88;;;;;;;;;;5028989;28;20049;-67
2022/11/05 05:11:20;;;;;;;4.15;0.70;;;;;;;;;;5032355;28;20498;-64
2022/11/05 05:13:46;;;;;;;3.88;0.80;;;;;;;;;;5024230;28;20251;-67
2022/11/05 05:16:25;;;;;;;2.28;0.70;;;;;;;;;;5034853;28;20053;-64
2022/11/05 05:18:52;;;;;;;1.67;0.63;;;;;;;;;;5027008;28;20045;-65
2022/11/05 05:21:37;;;;;;;2.92;0.70;;;;;;;;;;5027358;28;20041;-64
2022/11/05 05:24:15;;;;;;;1.95;0.68;;;;;;;;;;5016203;28;20060;-65
2022/11/05 05:26:49;;;;;;;3.58;0.50;;;;;;;;;;5030902;28;20049;-67
2022/11/05 05:29:17;;;;;;;1.25;0.60;;;;;;;;;;5027830;28;20557;-65
2022/11/05 05:31:43;;;;;;;1.90;0.60;;;;;;;;;;5017085;28;20038;-64
2022/11/05 05:34:13;;;;;;;0.40;0.40;;;;;;;;;;5028610;28;20049;-63
2022/11/05 05:36:39;;;;;;;1.55;0.63;;;;;;;;;;5038911;28;20049;-65
2022/11/05 05:39:06;;;;;;;3.55;0.65;;;;;;;;;;5060236;28;20045;-65
2022/11/05 05:41:32;;;;;;;3.70;0.77;;;;;;;;;;5020259;28;20096;-63
2022/11/05 05:43:58;;;;;;;2.97;0.90;;;;;;;;;;5025219;28;20041;-65
2022/11/05 05:46:24;;;;;;;2.15;0.70;;;;;;;;;;5028912;28;20057;-62
2022/11/05 05:48:51;;;;;;;2.30;0.82;;;;;;;;;;5027292;28;20049;-64
2022/11/05 05:51:18;;;;;;;3.45;0.68;;;;;;;;;;5014708;28;20045;-66
2022/11/05 05:53:44;;;;;;;1.75;0.70;;;;;;;;;;5028037;28;20054;-65
2022/11/05 05:56:13;;;;;;;2.40;0.70;;;;;;;;;;5030166;28;20687;-65
2022/11/05 05:58:39;;;;;;;2.22;0.70;;;;;;;;;;5023410;28;20095;-65
2022/11/05 06:01:08;;;;;;;2.40;0.70;;;;;;;;;;5022053;28;20042;-66
2022/11/05 06:03:34;;;;;;;2.42;0.85;;;;;;;;;;5026979;28;20045;-70
2022/11/05 06:06:08;;;;;;;3.58;0.95;;;;;;;;;;5024918;28;20057;-68
2022/11/05 06:08:34;;;;;;;3.03;0.90;;;;;;;;;;5029777;28;20072;-66
2022/11/05 06:11:01;;;;;;;2.35;0.60;;;;;;;;;;5023736;28;20655;-64
2022/11/05 06:13:28;;;;;;;1.67;0.68;;;;;;;;;;5020128;28;20038;-64
2022/11/05 06:16:00;;;;;;;2.25;0.80;;;;;;;;;;5020080;28;20503;-64
2022/11/05 06:18:26;;;;;;;5.35;1.45;;;;;;;;;;5016587;28;20384;-65
2022/11/05 06:20:51;;;;;;;4.50;1.58;;;;;;;;;;5027865;28;20045;-65
2022/11/05 06:23:17;;;;;;;2.63;0.90;;;;;;;;;;5026589;28;20048;-64
2022/11/05 06:25:43;;;;;;;3.97;1.23;;;;;;;;;;5030180;28;20099;-65
2022/11/05 06:28:09;;;;;;;2.50;1.00;;;;;;;;;;5026320;28;20059;-65
2022/11/05 06:30:35;;;;;;;4.65;1.10;;;;;;;;;;5026321;28;20050;-68
2022/11/05 06:33:03;;;;;;;1.92;0.88;;;;;;;;;;5018273;28;20053;-66
2022/11/05 06:35:30;;;;;;;1.77;0.98;;;;;;;;;;5025613;28;20050;-70
2022/11/05 06:38:00;;;;;;;1.10;0.80;;;;;;;;;;5019705;28;20041;-70
2022/11/05 06:40:27;;;;;;;5.03;1.15;;;;;;;;;;5032880;28;20514;-64
2022/11/05 06:42:54;;;;;;;1.45;0.65;;;;;;;;;;5034252;28;20056;-65
2022/11/05 06:45:20;;;;;;;5.13;0.82;;;;;;;;;;5039537;28;20170;-66
2022/11/05 06:47:46;;;;;;;2.63;0.98;;;;;;;;;;5026282;28;20049;-67
2022/11/05 06:50:12;;;;;;;5.18;0.98;;;;;;;;;;5033341;28;20465;-64
2022/11/05 06:52:38;;;;;;;3.42;0.82;;;;;;;;;;5020794;28;20033;-65
2022/11/05 06:55:04;;;;;;;4.22;0.85;;;;;;;;;;5031704;28;20100;-65
2022/11/05 06:57:30;;;;;;;2.85;0.90;;;;;;;;;;5021672;28;20041;-64
2022/11/05 06:59:56;;;;;;;1.10;0.70;;;;;;;;;;5032481;28;20124;-65
2022/11/05 07:02:22;;;;;;;6.95;0.75;;;;;;;;;;5026453;28;20045;-65
2022/11/05 07:04:48;;;;;;;3.03;0.93;;;;;;;;;;5021577;28;20068;-69
2022/11/05 07:07:14;;;;;;;1.88;0.80;;;;;;;;;;5019418;28;20550;-66
2022/11/05 07:09:42;;;;;;;3.05;0.95;;;;;;;;;;5017492;28;20133;-68
2022/11/05 07:12:09;;;;;;;2.95;1.08;;;;;;;;;;5024633;28;20052;-64
2022/11/05 07:14:34;;;;;;;3.97;1.00;;;;;;;;;;5031594;28;20368;-65
2022/11/05 07:17:00;;;;;;;7.25;1.40;;;;;;;;;;5025126;28;20507;-66
2022/11/05 07:19:26;;;;;;;1.77;0.77;;;;;;;;;;5030406;28;20076;-64
2022/11/05 07:21:52;;;;;;;4.45;1.02;;;;;;;;;;5023037;28;20053;-64
2022/11/05 07:24:18;;;;;;;5.55;1.00;;;;;;;;;;5023111;28;20095;-68
2022/11/05 07:26:46;;;;;;;5.68;1.08;;;;;;;;;;5017430;28;20052;-64
2022/11/05 07:29:11;;;;;;;3.47;1.20;;;;;;;;;;5027353;28;20084;-66
2022/11/05 07:31:37;;;;;;;2.42;0.90;;;;;;;;;;5026284;28;20045;-67
2022/11/05 07:34:03;;;;;;;3.08;1.20;;;;;;;;;;5023990;28;20050;-64
2022/11/05 07:36:29;;;;;;;3.90;1.35;;;;;;;;;;5019966;28;20410;-66
2022/11/05 07:38:55;;;;;;;5.00;1.40;;;;;;;;;;5009100;28;20053;-67
2022/11/05 07:41:21;;;;;;;3.67;1.30;;;;;;;;;;5009480;28;20100;-64
2022/11/05 07:43:47;;;;;;;4.65;1.70;;;;;;;;;;5025024;28;20045;-65
2022/11/05 07:46:13;;;;;;;7.40;1.75;;;;;;;;;;5025617;28;20056;-66
2022/11/05 07:48:38;;;;;;;4.63;1.85;;;;;;;;;;5023672;28;20049;-69
2022/11/05 07:51:04;;;;;;;4.63;1.48;;;;;;;;;;5022858;28;20120;-68
2022/11/05 07:53:30;;;;;;;3.22;1.70;;;;;;;;;;5020050;28;20137;-66
2022/11/05 07:55:57;;;;;;;5.13;2.10;;;;;;;;;;5016996;28;20553;-71
2022/11/05 07:58:23;;;;;;;6.40;1.92;;;;;;;;;;5016930;28;20137;-66
2022/11/05 08:00:49;;;;;;;8.48;2.38;;;;;;;;;;5017473;28;20041;-68
2022/11/05 08:03:16;;;;;;;6.93;2.13;;;;;;;;;;5017081;28;20041;-69
2022/11/05 08:05:45;;;;;;;8.48;2.10;;;;;;;;;;5021577;28;20419;-67
2022/11/05 08:08:13;;;;;;;6.22;1.85;;;;;;;;;;5019026;28;20500;-69
2022/11/05 08:10:40;;;;;;;3.83;1.38;;;;;;;;;;5016390;28;20050;-66
2022/11/05 08:13:07;;;;;;;7.32;3.38;;;;;;;;;;5020525;28;20111;-67
2022/11/05 08:15:33;;;;;;;6.90;2.25;;;;;;;;;;5016310;28;20119;-66
2022/11/05 08:18:02;;;;;;;5.97;2.28;;;;;;;;;;5007909;28;20053;-65
2022/11/05 08:20:28;;;;;;;24.35;2.60;;;;;;;;;;5011281;28;20056;-66
2022/11/05 08:22:54;;;;;;;7.70;2.00;;;;;;;;;;5018779;28;20072;-69
2022/11/05 08:25:21;;;;;;;5.72;1.70;;;;;;;;;;5020953;28;20132;-70
2022/11/05 08:27:47;;;;;;;5.43;1.83;;;;;;;;;;5019337;28;20109;-68
2022/11/05 08:30:13;;;;;;;2.47;1.33;;;;;;;;;;5023251;28;20072;-67
2022/11/05 08:32:39;;;;;;;5.38;1.60;;;;;;;;;;5021411;28;20770;-64
2022/11/05 08:35:05;;;;;;;3.60;1.50;;;;;;;;;;5016921;28;20056;-68
2022/11/05 08:37:31;;;;;;;5.93;2.15;;;;;;;;;;5022075;28;20057;-66
2022/11/05 08:39:57;;;;;;;4.38;1.40;;;;;;;;;;5023648;28;20072;-69
2022/11/05 08:42:23;;;;;;;4.07;1.38;;;;;;;;;;5021836;28;20045;-68
2022/11/05 08:44:49;;;;;;;5.65;1.50;;;;;;;;;;5023639;28;20099;-69
2022/11/05 08:47:15;;;;;;;4.13;1.25;;;;;;;;;;5023061;28;20462;-67
2022/11/05 08:49:41;;;;;;;5.03;1.48;;;;;;;;;;5052359;28;20053;-71
2022/11/05 08:52:07;;;;;;;3.80;1.75;;;;;;;;;;5023255;28;20403;-69
2022/11/05 08:54:33;;;;;;;4.22;1.58;;;;;;;;;;5024080;28;20503;-69
2022/11/05 08:56:58;;;;;;;3.92;1.73;;;;;;;;;;5024847;28;20046;-68
2022/11/05 08:59:24;;;;;;;11.13;1.98;;;;;;;;;;5022087;28;20049;-66
2022/11/05 09:01:50;;;;;;;4.05;1.65;;;;;;;;;;5023253;28;20461;-68
2022/11/05 09:04:16;;;;;;;6.32;1.48;;;;;;;;;;5022300;28;20045;-71
2022/11/05 09:06:42;;;;;;;6.35;1.80;;;;;;;;;;5022545;28;20095;-67
2022/11/05 09:09:08;;;;;;;5.15;1.55;;;;;;;;;;5018737;28;20053;-69
2022/11/05 09:11:34;;;;;;;5.93;2.10;;;;;;;;;;5023403;28;20403;-65
2022/11/05 09:14:00;;;;;;;5.57;1.85;;;;;;;;;;5028681;28;20057;-70
2022/11/05 09:16:25;;;;;;;3.22;1.50;;;;;;;;;;5026426;28;20044;-68
2022/11/05 09:18:51;;;;;;;5.85;1.60;;;;;;;;;;5026488;28;20049;-66
2022/11/05 09:21:18;;;;;;;5.88;1.58;;;;;;;;;;5025339;28;20076;-68
2022/11/05 09:23:45;;;;;;;3.67;1.80;;;;;;;;;;5059431;28;20115;-66
2022/11/05 09:26:12;;;;;;;4.80;1.80;;;;;;;;;;5022325;28;20511;-65
2022/11/05 09:28:38;;;;;;;7.57;1.80;;;;;;;;;;5029669;28;20499;-66
2022/11/05 09:31:07;;;;;;;5.95;1.40;;;;;;;;;;5037028;28;20044;-67
2022/11/05 09:33:34;;;;;;;6.65;1.30;;;;;;;;;;5024909;28;20046;-68
2022/11/05 09:36:01;;;;;;;3.05;1.45;;;;;;;;;;5021152;28;20428;-70
2022/11/05 09:38:27;;;;;;;6.95;1.40;;;;;;;;;;5025346;28;20061;-65
2022/11/05 09:40:59;;;;;;;2.15;1.20;;;;;;;;;;5019120;28;20389;-64
2022/11/05 09:43:49;;;;;;;2.83;1.15;;;;;;;;;;5025935;28;20058;-65
2022/11/05 09:46:23;;;;;;;2.25;1.10;;;;;;;;;;5024177;28;20129;-64
2022/11/05 09:48:57;;;;;;;3.47;0.80;;;;;;;;;;5039019;28;20045;-68
2022/11/05 09:51:23;;;;;;;3.10;1.13;;;;;;;;;;5029569;28;20037;-67
2022/11/05 09:53:49;;;;;;;5.63;0.73;;;;;;;;;;5026276;28;20418;-66
2022/11/05 09:56:34;;;;;;;2.95;0.98;;;;;;;;;;5022903;28;20388;-67
2022/11/05 09:59:20;;;;;;;5.10;1.08;;;;;;;;;;5012699;28;20054;-67
2022/11/05 10:01:46;;;;;;;3.40;0.70;;;;;;;;;;5020061;28;20414;-69
2022/11/05 10:04:18;;;;;;;3.47;0.98;;;;;;;;;;5021977;28;20049;-67
2022/11/05 10:06:55;;;;;;;3.03;1.00;;;;;;;;;;5024942;28;20072;-68
2022/11/05 10:09:24;;;;;;;2.20;0.73;;;;;;;;;;5025134;28;20107;-69
2022/11/05 10:11:55;;;;;;;3.97;0.80;;;;;;;;;;5023219;28;20034;-67
2022/11/05 10:14:27;;;;;;;2.33;0.60;;;;;;;;;;5022723;28;20041;-65
2022/11/05 10:17:03;;;;;;;1.13;0.45;;;;;;;;;;5026526;28;20049;-67
2022/11/05 10:19:50;;;;;;;2.92;1.33;;;;;;;;;;5026380;28;20037;-64
2022/11/05 10:22:17;;;;;;;2.63;0.90;;;;;;;;;;5016301;28;20041;-62
2022/11/05 10:24:47;;;;;;;4.25;0.90;;;;;;;;;;5025805;28;20115;-61
2022/11/05 10:27:20;;;;;;;3.38;1.13;;;;;;;;;;5027525;28;20608;-63
2022/11/05 10:29:47;;;;;;;6.28;1.17;;;;;;;;;;5026521;28;20041;-63
2022/11/05 10:32:26;;;;;;;12.15;1.80;;;;;;;;;;5023792;28;20038;-62
2022/11/05 10:34:54;;;;;;;3.35;1.55;;;;;;;;;;5026888;28;20129;-64
2022/11/05 10:37:22;;;;;;;3.58;0.98;;;;;;;;;;5028158;28;20503;-63
2022/11/05 10:39:48;;;;;;;2.38;0.90;;;;;;;;;;5026807;28;20050;-62
2022/11/05 10:42:32;;;;;;;7.45;2.00;;;;;;;;;;5023954;28;20492;-66
2022/11/05 10:45:12;;;;;;;3.90;1.20;;;;;;;;;;5023978;28;20046;-62
2022/11/05 10:48:05;;;;;;;2.38;0.88;;;;;;;;;;5020367;28;20483;-62
2022/11/05 10:50:31;;;;;;;5.38;0.93;;;;;;;;;;5011195;28;20053;-62
2022/11/05 10:53:11;;;;;;;3.15;1.00;;;;;;;;;;5026570;28;20441;-63
2022/11/05 10:55:42;;;;;;;4.15;1.20;;;;;;;;;;5032147;28;20104;-64
2022/11/05 10:58:12;;;;;;;2.17;1.05;;;;;;;;;;5026589;28;20045;-62
2022/11/05 11:00:38;;;;;;;2.38;1.05;;;;;;;;;;5027511;28;20053;-62
2022/11/05 11:03:32;;;;;;;6.45;1.65;;;;;;;;;;5017435;28;20046;-62
2022/11/05 11:06:01;;;;;;;2.15;0.93;;;;;;;;;;5019366;28;20058;-63
2022/11/05 11:08:28;;;;;;;3.70;1.20;;;;;;;;;;5025477;28;21166;-62
2022/11/05 11:10:57;;;;;;;4.93;1.20;;;;;;;;;;5027548;28;20049;-62
2022/11/05 11:13:55;;;;;;;5.55;1.63;;;;;;;;;;5019283;28;20487;-62
2022/11/05 11:16:23;;;;;;;3.45;1.35;;;;;;;;;;5013553;28;20053;-64
2022/11/05 11:18:59;;;;;;;6.10;2.20;;;;;;;;;;5027761;28;20613;-64
2022/11/05 11:21:27;;;;;;;3.13;1.40;;;;;;;;;;5016770;28;20054;-63
2022/11/05 11:23:58;;;;;;;3.75;2.20;;;;;;;;;;5015917;28;20460;-66
2022/11/05 11:26:40;;;;;;;3.92;1.92;;;;;;;;;;5019031;28;20510;-64
2022/11/05 11:29:12;;;;;;;4.53;2.25;;;;;;;;;;5028448;28;20053;-65
2022/11/05 11:31:39;;;;;;;5.10;1.92;;;;;;;;;;5028076;28;20046;-65
2022/11/05 11:34:11;;;;;;;8.65;3.33;;;;;;;;;;5026003;28;20053;-65
2022/11/05 11:36:43;;;;;;;6.80;1.90;;;;;;;;;;5024152;28;20064;-64
2022/11/05 11:39:16;;;;;;;4.32;1.40;;;;;;;;;;5025587;28;20068;-65
2022/11/05 11:41:43;;;;;;;4.78;1.92;;;;;;;;;;5023719;28;20049;-63
2022/11/05 11:44:25;;;;;;;3.85;1.60;;;;;;;;;;5022114;28;20049;-64
2022/11/05 11:46:56;;;;;;;6.03;1.50;;;;;;;;;;5026608;28;20052;-62
2022/11/05 11:49:40;;;;;;;4.20;1.58;;;;;;;;;;5021644;28;20415;-62
2022/11/05 11:52:12;;;;;;;5.10;1.10;;;;;;;;;;5024525;28;20056;-66
2022/11/05 11:54:38;;;;;;;3.58;1.40;;;;;;;;;;5021313;28;20046;-64
2022/11/05 11:57:24;;;;;;;8.05;1.60;;;;;;;;;;5026244;28;20049;-64
2022/11/05 11:59:51;;;;;;;8.75;3.55;;;;;;;;;;5018971;28;20808;-65
2022/11/05 12:02:34;;;;;;;14.63;3.17;;;;;;;;;;5025547;28;20436;-61
2022/11/05 12:05:14;;;;;;;12.27;1.60;;;;;;;;;;5031317;28;20062;-63
2022/11/05 12:07:51;;;;;;;3.40;1.23;;;;;;;;;;5029618;28;20053;-64
2022/11/05 12:10:29;;;;;;;5.30;1.10;;;;;;;;;;5027241;28;20492;-62
2022/11/05 12:13:01;;;;;;;2.70;1.15;;;;;;;;;;5023795;28;20077;-63
2022/11/05 12:15:50;;;;;;;4.60;1.38;;;;;;;;;;5027997;28;20041;-63
2022/11/05 12:18:34;;;;;;;5.25;1.35;;;;;;;;;;5030638;28;20076;-63
2022/11/05 12:21:02;;;;;;;4.90;1.08;;;;;;;;;;5026443;28;20588;-65
2022/11/05 12:23:42;;;;;;;4.68;1.20;;;;;;;;;;5049294;28;20054;-65
2022/11/05 12:26:50;;;;;;;1.90;0.90;;;;;;;;;;5029201;28;20148;-64
2022/11/05 12:29:34;;;;;;;3.92;1.00;;;;;;;;;;4997062;28;20084;-63
2022/11/05 12:32:18;;;;;;;2.00;1.00;;;;;;;;;;5006280;28;20057;-62
2022/11/05 12:34:54;;;;;;;2.63;1.23;;;;;;;;;;5008130;28;20046;-62
2022/11/05 12:37:48;;;;;;;3.53;1.38;;;;;;;;;;5007421;28;20166;-63
2022/11/05 12:40:32;;;;;;;4.13;1.23;;;;;;;;;;5008184;28;20050;-65
2022/11/05 12:43:15;;;;;;;6.43;1.35;;;;;;;;;;5006269;28;20045;-64
2022/11/05 12:46:02;;;;;;;;;;;;;;;;;;5007668;28;20065;-62
2022/11/05 12:49:01;;;;;;;3.80;1.60;;;;;;;;;;4979421;28;20390;-63
2022/11/05 12:51:36;;;;;;;4.55;1.92;;;;;;;;;;5007263;28;20054;-63
2022/11/05 12:54:26;;;;;;;7.78;3.60;;;;;;;;;;5007401;28;20065;-64
2022/11/05 12:56:57;;;;;;;5.25;1.60;;;;;;;;;;4997766;28;20042;-64
2022/11/05 12:59:37;;;;;;;3.47;1.98;;;;;;;;;;5007540;28;20197;-62
2022/11/05 13:02:22;;;;;;;3.65;1.70;;;;;;;;;;4996946;28;20054;-62
2022/11/05 13:04:55;;;;;;;4.88;1.20;;;;;;;;;;5003310;28;20042;-62
2022/11/05 13:07:31;;;;;;;4.65;1.20;;;;;;;;;;5026865;28;20410;-63
2022/11/05 13:10:19;;;;;;;6.50;1.10;;;;;;;;;;5015465;28;20045;-61
2022/11/05 13:12:55;;;;;;;3.97;1.23;;;;;;;;;;5017755;28;20041;-62
2022/11/05 13:15:27;;;;;;;3.53;1.48;;;;;;;;;;5021923;28;20065;-64
2022/11/05 13:18:01;;;;;;;6.60;2.10;;;;;;;;;;5029108;28;20107;-64
2022/11/05 13:20:36;;;;;;;2.58;1.30;;;;;;;;;;5026903;28;20048;-62
2022/11/05 13:23:39;;;;;;;3.10;1.50;;;;;;;;;;5022932;28;20057;-62
2022/11/05 13:26:22;;;;;;;2.38;1.50;;;;;;;;;;5024682;28;20061;-64
2022/11/05 13:28:58;;;;;;;14.02;1.52;;;;;;;;;;5012082;28;20050;-65
2022/11/05 13:31:33;;;;;;;4.57;1.23;;;;;;;;;;5017815;28;20041;-64
2022/11/05 13:34:05;;;;;;;3.70;1.48;;;;;;;;;;5035904;28;20527;-70
2022/11/05 13:39:47;;;;;;;2.03;0.93;;;;;;;;;;5027615;28;20068;-64
2022/11/05 13:42:28;;;;;;;1.35;0.82;;;;;;;;;;5029528;28;20423;-63
2022/11/05 13:45:07;;;;;;;1.83;0.77;;;;;;;;;;5017668;28;20407;-63
2022/11/05 13:48:10;;;;;;;3.92;1.13;;;;;;;;;;5025843;28;20042;-63
2022/11/05 13:51:07;;;;;;;4.10;1.80;;;;;;;;;;5026588;28;20107;-64
2022/11/05 13:53:45;;;;;;;5.72;1.58;;;;;;;;;;5041457;28;20558;-66
2022/11/05 13:56:36;;;;;;;5.65;1.40;;;;;;;;;;5025178;28;20041;-64
2022/11/05 13:59:35;;;;;;;6.50;1.23;;;;;;;;;;5022355;28;20126;-62
2022/11/05 14:02:17;;;;;;;4.90;1.50;;;;;;;;;;5013621;28;20054;-65
2022/11/05 14:04:50;;;;;;;2.00;1.30;;;;;;;;;;5017015;28;20473;-63
2022/11/05 14:07:28;;;;;;;2.13;0.90;;;;;;;;;;5028410;28;20060;-63
2022/11/05 14:09:57;;;;;;;4.32;1.30;;;;;;;;;;5025773;28;20119;-64
2022/11/05 14:12:30;;;;;;;3.00;1.00;;;;;;;;;;5024748;28;20095;-62
2022/11/05 14:15:04;;;;;;;3.20;1.10;;;;;;;;;;5025939;28;20076;-67
2022/11/05 14:17:52;;;;;;;2.75;0.88;;;;;;;;;;5026894;28;20041;-65
2022/11/05 14:20:38;;;;;;;1.88;0.85;;;;;;;;;;5021365;28;20163;-63
2022/11/05 14:23:22;;;;;;;1.70;0.88;;;;;;;;;;5017100;28;20065;-62
2022/11/05 14:26:11;;;;;;;2.38;1.00;;;;;;;;;;5018455;28;20165;-63
2022/11/05 14:28:38;;;;;;;2.40;0.90;;;;;;;;;;5016087;28;20048;-64
2022/11/05 14:31:40;;;;;;;5.00;0.90;;;;;;;;;;5016967;28;20049;-66
2022/11/05 14:34:09;;;;;;;5.80;1.10;;;;;;;;;;4996819;28;20896;-65
2022/11/05 14:37:02;;;;;;;1.95;0.93;;;;;;;;;;4999495;28;20054;-65
2022/11/05 14:39:30;;;;;;;3.57;0.80;;;;;;;;;;4991190;28;20635;-68
2022/11/05 14:42:30;;;;;;;6.63;1.85;;;;;;;;;;4993330;28;20504;-65
2022/11/05 14:45:21;;;;;;;4.93;1.20;;;;;;;;;;4925775;29;20102;-66
2022/11/05 14:47:59;;;;;;;3.53;1.70;;;;;;;;;;4920833;29;20078;-65
2022/11/05 14:50:41;;;;;;;4.03;1.50;;;;;;;;;;4926190;29;20059;-65
2022/11/05 14:53:32;;;;;;;4.47;1.17;;;;;;;;;;4924897;29;20047;-67
2022/11/05 14:56:03;;;;;;;4.47;1.20;;;;;;;;;;4929181;29;20530;-69
2022/11/05 14:58:35;;;;;;;3.35;1.10;;;;;;;;;;4937373;29;20051;-66
2022/11/05 15:01:07;;;;;;;2.00;1.20;;;;;;;;;;4928441;29;20078;-65
2022/11/05 15:03:40;;;;;;;3.88;1.50;;;;;;;;;;4928191;29;20095;-65
2022/11/05 15:06:35;;;;;;;3.70;1.60;;;;;;;;;;4921530;29;20067;-68
2022/11/05 15:09:22;;;;;;;2.15;1.40;;;;;;;;;;4923086;29;20063;-67
2022/11/05 15:11:54;;;;;;;3.95;1.58;;;;;;;;;;4955834;28;20489;-66
2022/11/05 15:14:27;;;;;;;2.30;1.40;;;;;;;;;;4952117;28;20922;-68
2022/11/05 15:16:58;;;;;;;3.65;1.35;;;;;;;;;;4954539;28;20497;-67
2022/11/05 15:19:31;;;;;;;2.40;1.50;;;;;;;;;;4999988;28;20081;-69
2022/11/05 15:22:01;;;;;;;3.47;1.42;;;;;;;;;;5018560;28;20060;-67
2022/11/05 15:24:28;;;;;;;3.72;1.70;;;;;;;;;;5024258;28;20503;-67
2022/11/05 15:27:26;;;;;;;4.20;1.90;;;;;;;;;;5024525;28;20054;-66
2022/11/05 15:29:52;;;;;;;3.15;1.58;;;;;;;;;;5024653;28;20369;-74
2022/11/05 15:32:29;;;;;;;5.82;1.50;;;;;;;;;;5017206;28;20046;-72
2022/11/05 15:34:55;;;;;;;6.38;1.20;;;;;;;;;;5018828;28;20056;-71
2022/11/05 15:37:26;;;;;;;3.33;1.65;;;;;;;;;;5017045;28;20051;-68
2022/11/05 15:39:54;;;;;;;4.05;1.90;;;;;;;;;;5018031;28;20144;-68
2022/11/05 15:42:25;;;;;;;5.38;1.52;;;;;;;;;;5017910;28;20398;-67
2022/11/05 15:44:56;;;;;;;4.32;1.23;;;;;;;;;;5019017;28;20077;-67
2022/11/05 15:47:30;;;;;;;4.70;1.80;;;;;;;;;;5017651;28;20053;-68
2022/11/05 15:50:00;;;;;;;6.93;1.88;;;;;;;;;;5019340;28;20053;-68
2022/11/05 15:52:35;;;;;;;6.03;3.10;;;;;;;;;;5016521;28;20054;-67
2022/11/05 15:55:17;;;;;;;6.35;1.88;;;;;;;;;;5022800;28;20124;-69
2022/11/05 15:57:47;;;;;;;4.47;1.20;;;;;;;;;;5013770;28;20095;-69